Woodbury, Connecticut
Current Conditions -  °F | °C
As of 5:35 AM on Saturday 22 Nov 2014 (Local Time) from KOXC Reporting Station
Clear Clear  
Wind Chill: 21°   Ceiling: Unl
Heat Index: 21°   Visibility: 10mi
Dew Point:   Wind: 3mph
Humidity: 54%   Direction: 230°SW
Pressure: 30.42"   Gusts: NA
Location:  41.54°N, 73.21°W
Report Text: KOXC 221035Z 23003KT 10SM CLR M06/M14 A3042 RMK AO1
Loading
Personal Weather Stations






























Interactive Weather Map New forecast layout! Learn more

10-Day Weather Forecast

Advertisements
Track Severe Weather on mobile